sensor_id;sensor_type;location;lat;lon;timestamp;P1;durP1;ratioP1;P2;durP2;ratioP2
59167;SDS011;44948;55.046;73.266;2023-04-03T00:01:26;11.25;;;4.22;;
59167;SDS011;44948;55.046;73.266;2023-04-03T00:04:28;18.92;;;5.97;;
59167;SDS011;44948;55.046;73.266;2023-04-03T00:07:31;9.50;;;4.78;;
59167;SDS011;44948;55.046;73.266;2023-04-03T00:10:33;14.57;;;6.82;;
59167;SDS011;44948;55.046;73.266;2023-04-03T00:13:42;12.95;;;4.75;;
59167;SDS011;44948;55.046;73.266;2023-04-03T00:16:45;14.88;;;4.60;;
59167;SDS011;44948;55.046;73.266;2023-04-03T00:19:47;16.95;;;4.63;;
59167;SDS011;44948;55.046;73.266;2023-04-03T00:22:57;14.13;;;5.57;;
59167;SDS011;44948;55.046;73.266;2023-04-03T00:26:02;13.38;;;4.15;;
59167;SDS011;44948;55.046;73.266;2023-04-03T00:29:06;15.55;;;4.70;;
59167;SDS011;44948;55.046;73.266;2023-04-03T00:32:09;14.55;;;4.80;;
59167;SDS011;44948;55.046;73.266;2023-04-03T00:35:11;12.45;;;4.13;;
59167;SDS011;44948;55.046;73.266;2023-04-03T00:38:17;16.25;;;4.70;;
59167;SDS011;44948;55.046;73.266;2023-04-03T00:41:20;15.15;;;4.72;;
59167;SDS011;44948;55.046;73.266;2023-04-03T00:45:22;15.35;;;4.85;;
59167;SDS011;44948;55.046;73.266;2023-04-03T00:47:45;10.75;;;3.83;;
59167;SDS011;44948;55.046;73.266;2023-04-03T00:50:48;11.95;;;3.95;;
59167;SDS011;44948;55.046;73.266;2023-04-03T00:54:00;16.00;;;4.85;;
59167;SDS011;44948;55.046;73.266;2023-04-03T00:57:13;13.90;;;4.50;;
59167;SDS011;44948;55.046;73.266;2023-04-03T01:00:19;30.58;;;4.43;;
59167;SDS011;44948;55.046;73.266;2023-04-03T01:03:23;18.25;;;4.00;;
59167;SDS011;44948;55.046;73.266;2023-04-03T01:06:28;16.42;;;4.75;;
59167;SDS011;44948;55.046;73.266;2023-04-03T01:09:53;21.35;;;4.25;;
59167;SDS011;44948;55.046;73.266;2023-04-03T01:13:00;14.20;;;4.40;;
59167;SDS011;44948;55.046;73.266;2023-04-03T01:16:03;17.10;;;4.63;;
59167;SDS011;44948;55.046;73.266;2023-04-03T01:19:08;16.65;;;4.75;;
59167;SDS011;44948;55.046;73.266;2023-04-03T01:22:23;15.75;;;4.90;;
59167;SDS011;44948;55.046;73.266;2023-04-03T01:25:33;27.58;;;4.72;;
59167;SDS011;44948;55.046;73.266;2023-04-03T01:28:38;25.58;;;4.85;;
59167;SDS011;44948;55.046;73.266;2023-04-03T01:34:57;25.90;;;5.15;;
59167;SDS011;44948;55.046;73.266;2023-04-03T01:37:59;22.17;;;5.35;;
59167;SDS011;44948;55.046;73.266;2023-04-03T01:41:02;14.35;;;4.65;;
59167;SDS011;44948;55.046;73.266;2023-04-03T01:44:05;16.63;;;5.13;;
59167;SDS011;44948;55.046;73.266;2023-04-03T01:47:17;19.40;;;4.63;;
59167;SDS011;44948;55.046;73.266;2023-04-03T01:50:20;24.80;;;5.78;;
59167;SDS011;44948;55.046;73.266;2023-04-03T01:53:24;26.33;;;5.90;;
59167;SDS011;44948;55.046;73.266;2023-04-03T01:56:26;23.63;;;5.00;;
59167;SDS011;44948;55.046;73.266;2023-04-03T01:59:31;22.00;;;6.55;;
59167;SDS011;44948;55.046;73.266;2023-04-03T02:02:44;20.88;;;4.88;;
59167;SDS011;44948;55.046;73.266;2023-04-03T02:05:47;18.48;;;5.18;;
59167;SDS011;44948;55.046;73.266;2023-04-03T02:08:59;19.77;;;5.13;;
59167;SDS011;44948;55.046;73.266;2023-04-03T02:12:07;26.23;;;5.82;;
59167;SDS011;44948;55.046;73.266;2023-04-03T02:15:10;27.17;;;6.20;;
59167;SDS011;44948;55.046;73.266;2023-04-03T02:18:12;18.25;;;5.35;;
59167;SDS011;44948;55.046;73.266;2023-04-03T02:21:15;16.88;;;5.75;;
59167;SDS011;44948;55.046;73.266;2023-04-03T02:24:30;20.80;;;5.50;;
59167;SDS011;44948;55.046;73.266;2023-04-03T02:27:34;15.57;;;5.50;;
59167;SDS011;44948;55.046;73.266;2023-04-03T02:30:37;21.88;;;5.65;;
59167;SDS011;44948;55.046;73.266;2023-04-03T02:33:40;20.48;;;7.30;;
59167;SDS011;44948;55.046;73.266;2023-04-03T02:36:44;24.17;;;8.40;;
59167;SDS011;44948;55.046;73.266;2023-04-03T02:39:48;39.25;;;12.25;;
59167;SDS011;44948;55.046;73.266;2023-04-03T02:42:51;26.77;;;12.40;;
59167;SDS011;44948;55.046;73.266;2023-04-03T02:45:54;28.40;;;11.10;;
59167;SDS011;44948;55.046;73.266;2023-04-03T02:49:04;20.40;;;6.32;;
59167;SDS011;44948;55.046;73.266;2023-04-03T02:52:07;18.65;;;5.50;;
59167;SDS011;44948;55.046;73.266;2023-04-03T02:55:12;21.90;;;5.25;;
59167;SDS011;44948;55.046;73.266;2023-04-03T02:58:16;18.83;;;5.10;;
59167;SDS011;44948;55.046;73.266;2023-04-03T03:01:19;16.30;;;4.43;;
59167;SDS011;44948;55.046;73.266;2023-04-03T03:04:26;10.00;;;4.13;;
59167;SDS011;44948;55.046;73.266;2023-04-03T03:07:29;10.27;;;4.25;;
59167;SDS011;44948;55.046;73.266;2023-04-03T03:10:31;17.73;;;5.68;;
59167;SDS011;44948;55.046;73.266;2023-04-03T03:13:34;26.42;;;5.50;;
59167;SDS011;44948;55.046;73.266;2023-04-03T03:16:40;13.23;;;4.20;;
59167;SDS011;44948;55.046;73.266;2023-04-03T03:19:42;16.65;;;5.15;;
59167;SDS011;44948;55.046;73.266;2023-04-03T03:22:45;13.18;;;3.55;;
59167;SDS011;44948;55.046;73.266;2023-04-03T03:25:48;13.85;;;4.57;;
59167;SDS011;44948;55.046;73.266;2023-04-03T03:28:55;18.25;;;4.03;;
59167;SDS011;44948;55.046;73.266;2023-04-03T03:31:58;17.33;;;5.10;;
59167;SDS011;44948;55.046;73.266;2023-04-03T03:35:00;11.98;;;3.83;;
59167;SDS011;44948;55.046;73.266;2023-04-03T03:38:03;14.80;;;5.28;;
59167;SDS011;44948;55.046;73.266;2023-04-03T03:41:06;21.52;;;7.72;;
59167;SDS011;44948;55.046;73.266;2023-04-03T03:44:10;17.05;;;6.35;;
59167;SDS011;44948;55.046;73.266;2023-04-03T03:47:13;13.25;;;3.42;;
59167;SDS011;44948;55.046;73.266;2023-04-03T03:50:15;15.27;;;2.97;;
59167;SDS011;44948;55.046;73.266;2023-04-03T03:53:20;12.60;;;5.00;;
59167;SDS011;44948;55.046;73.266;2023-04-03T03:56:26;15.50;;;3.17;;
59167;SDS011;44948;55.046;73.266;2023-04-03T03:59:29;14.50;;;3.78;;
59167;SDS011;44948;55.046;73.266;2023-04-03T04:02:31;15.82;;;4.35;;
59167;SDS011;44948;55.046;73.266;2023-04-03T04:05:34;10.80;;;4.25;;
59167;SDS011;44948;55.046;73.266;2023-04-03T04:08:39;15.52;;;5.45;;
59167;SDS011;44948;55.046;73.266;2023-04-03T04:11:43;12.70;;;4.80;;
59167;SDS011;44948;55.046;73.266;2023-04-03T04:14:50;11.08;;;4.68;;
59167;SDS011;44948;55.046;73.266;2023-04-03T04:17:52;12.98;;;4.65;;
59167;SDS011;44948;55.046;73.266;2023-04-03T04:20:57;11.38;;;3.60;;
59167;SDS011;44948;55.046;73.266;2023-04-03T04:24:08;11.88;;;4.78;;
59167;SDS011;44948;55.046;73.266;2023-04-03T04:27:11;7.60;;;3.53;;
59167;SDS011;44948;55.046;73.266;2023-04-03T04:30:13;12.57;;;3.83;;
59167;SDS011;44948;55.046;73.266;2023-04-03T04:33:17;10.27;;;3.65;;
59167;SDS011;44948;55.046;73.266;2023-04-03T04:36:25;22.02;;;4.22;;
59167;SDS011;44948;55.046;73.266;2023-04-03T04:39:28;19.13;;;4.53;;
59167;SDS011;44948;55.046;73.266;2023-04-03T04:42:32;12.15;;;3.80;;
59167;SDS011;44948;55.046;73.266;2023-04-03T04:45:46;25.38;;;7.38;;
59167;SDS011;44948;55.046;73.266;2023-04-03T04:48:51;13.88;;;5.30;;
59167;SDS011;44948;55.046;73.266;2023-04-03T04:51:56;15.80;;;4.65;;
59167;SDS011;44948;55.046;73.266;2023-04-03T04:55:12;15.84;;;5.94;;
59167;SDS011;44948;55.046;73.266;2023-04-03T04:58:15;18.80;;;7.20;;
59167;SDS011;44948;55.046;73.266;2023-04-03T05:01:18;17.08;;;4.85;;
59167;SDS011;44948;55.046;73.266;2023-04-03T05:04:28;21.65;;;6.10;;
59167;SDS011;44948;55.046;73.266;2023-04-03T05:07:38;17.95;;;5.53;;
59167;SDS011;44948;55.046;73.266;2023-04-03T05:10:40;16.70;;;5.05;;
59167;SDS011;44948;55.046;73.266;2023-04-03T05:13:44;22.08;;;4.65;;
59167;SDS011;44948;55.046;73.266;2023-04-03T05:16:55;17.75;;;5.47;;
59167;SDS011;44948;55.046;73.266;2023-04-03T05:20:03;13.85;;;3.75;;
59167;SDS011;44948;55.046;73.266;2023-04-03T05:23:06;23.83;;;4.82;;
59167;SDS011;44948;55.046;73.266;2023-04-03T05:26:19;16.52;;;5.40;;
59167;SDS011;44948;55.046;73.266;2023-04-03T05:29:24;15.82;;;4.20;;
59167;SDS011;44948;55.046;73.266;2023-04-03T05:32:27;20.25;;;6.45;;
59167;SDS011;44948;55.046;73.266;2023-04-03T05:35:41;28.42;;;6.68;;
59167;SDS011;44948;55.046;73.266;2023-04-03T05:38:55;13.95;;;5.72;;
59167;SDS011;44948;55.046;73.266;2023-04-03T05:41:59;12.10;;;5.07;;
59167;SDS011;44948;55.046;73.266;2023-04-03T05:45:02;10.98;;;4.40;;
59167;SDS011;44948;55.046;73.266;2023-04-03T05:48:05;18.92;;;4.22;;
59167;SDS011;44948;55.046;73.266;2023-04-03T05:51:13;12.10;;;4.60;;
59167;SDS011;44948;55.046;73.266;2023-04-03T05:54:27;20.83;;;9.98;;
59167;SDS011;44948;55.046;73.266;2023-04-03T05:57:51;14.50;;;4.82;;
59167;SDS011;44948;55.046;73.266;2023-04-03T06:00:54;17.42;;;5.13;;
59167;SDS011;44948;55.046;73.266;2023-04-03T06:03:56;21.58;;;5.65;;
59167;SDS011;44948;55.046;73.266;2023-04-03T06:07:00;14.13;;;4.60;;
59167;SDS011;44948;55.046;73.266;2023-04-03T06:10:04;11.13;;;4.78;;
59167;SDS011;44948;55.046;73.266;2023-04-03T06:13:06;17.08;;;4.30;;
59167;SDS011;44948;55.046;73.266;2023-04-03T06:16:12;19.40;;;5.47;;
59167;SDS011;44948;55.046;73.266;2023-04-03T06:19:17;8.23;;;3.60;;
59167;SDS011;44948;55.046;73.266;2023-04-03T06:22:24;16.35;;;4.97;;
59167;SDS011;44948;55.046;73.266;2023-04-03T06:25:27;13.57;;;7.10;;
59167;SDS011;44948;55.046;73.266;2023-04-03T06:28:33;12.45;;;5.28;;
59167;SDS011;44948;55.046;73.266;2023-04-03T06:31:35;17.83;;;6.88;;
59167;SDS011;44948;55.046;73.266;2023-04-03T06:34:38;13.93;;;6.47;;
59167;SDS011;44948;55.046;73.266;2023-04-03T06:37:41;26.98;;;5.22;;
59167;SDS011;44948;55.046;73.266;2023-04-03T06:40:43;11.48;;;3.78;;
59167;SDS011;44948;55.046;73.266;2023-04-03T06:43:46;10.40;;;3.70;;
59167;SDS011;44948;55.046;73.266;2023-04-03T06:46:48;12.02;;;3.75;;
59167;SDS011;44948;55.046;73.266;2023-04-03T06:49:55;15.48;;;4.10;;
59167;SDS011;44948;55.046;73.266;2023-04-03T06:52:59;24.25;;;10.60;;
59167;SDS011;44948;55.046;73.266;2023-04-03T06:56:02;34.38;;;7.13;;
59167;SDS011;44948;55.046;73.266;2023-04-03T06:59:05;17.80;;;3.90;;
59167;SDS011;44948;55.046;73.266;2023-04-03T07:02:13;16.15;;;3.65;;
59167;SDS011;44948;55.046;73.266;2023-04-03T07:05:15;14.45;;;3.90;;
59167;SDS011;44948;55.046;73.266;2023-04-03T07:08:20;8.70;;;3.50;;
59167;SDS011;44948;55.046;73.266;2023-04-03T07:11:24;14.27;;;3.20;;
59167;SDS011;44948;55.046;73.266;2023-04-03T07:14:27;11.38;;;3.95;;
59167;SDS011;44948;55.046;73.266;2023-04-03T07:17:30;17.33;;;4.50;;
59167;SDS011;44948;55.046;73.266;2023-04-03T07:20:32;17.67;;;5.32;;
59167;SDS011;44948;55.046;73.266;2023-04-03T07:23:35;18.70;;;8.07;;
59167;SDS011;44948;55.046;73.266;2023-04-03T07:26:51;16.15;;;4.60;;
59167;SDS011;44948;55.046;73.266;2023-04-03T07:29:54;23.55;;;9.27;;
59167;SDS011;44948;55.046;73.266;2023-04-03T07:32:57;22.33;;;6.78;;
59167;SDS011;44948;55.046;73.266;2023-04-03T07:36:00;17.45;;;5.13;;
59167;SDS011;44948;55.046;73.266;2023-04-03T07:39:03;13.15;;;3.30;;
59167;SDS011;44948;55.046;73.266;2023-04-03T07:42:05;12.30;;;3.60;;
59167;SDS011;44948;55.046;73.266;2023-04-03T07:45:08;15.73;;;3.63;;
59167;SDS011;44948;55.046;73.266;2023-04-03T07:48:11;19.35;;;4.18;;
59167;SDS011;44948;55.046;73.266;2023-04-03T07:51:14;10.25;;;3.95;;
59167;SDS011;44948;55.046;73.266;2023-04-03T07:54:16;12.23;;;4.05;;
59167;SDS011;44948;55.046;73.266;2023-04-03T07:57:19;13.05;;;3.80;;
59167;SDS011;44948;55.046;73.266;2023-04-03T08:00:21;16.23;;;4.88;;
59167;SDS011;44948;55.046;73.266;2023-04-03T08:03:23;11.35;;;3.42;;
59167;SDS011;44948;55.046;73.266;2023-04-03T08:06:38;12.25;;;3.58;;
59167;SDS011;44948;55.046;73.266;2023-04-03T08:09:41;17.47;;;5.23;;
59167;SDS011;44948;55.046;73.266;2023-04-03T08:12:45;10.10;;;3.20;;
59167;SDS011;44948;55.046;73.266;2023-04-03T08:15:48;5.13;;;2.88;;
59167;SDS011;44948;55.046;73.266;2023-04-03T08:18:53;11.48;;;3.60;;
59167;SDS011;44948;55.046;73.266;2023-04-03T08:21:56;6.90;;;2.92;;
59167;SDS011;44948;55.046;73.266;2023-04-03T08:24:59;8.75;;;3.08;;
59167;SDS011;44948;55.046;73.266;2023-04-03T12:51:47;32.28;;;11.52;;
59167;SDS011;44948;55.046;73.266;2023-04-03T12:54:50;22.60;;;5.97;;
59167;SDS011;44948;55.046;73.266;2023-04-03T12:57:53;25.58;;;13.05;;
59167;SDS011;44948;55.046;73.266;2023-04-03T13:00:58;19.15;;;5.97;;
59167;SDS011;44948;55.046;73.266;2023-04-03T13:04:02;15.45;;;4.53;;
59167;SDS011;44948;55.046;73.266;2023-04-03T13:07:18;18.75;;;4.90;;
59167;SDS011;44948;55.046;73.266;2023-04-03T13:10:48;18.90;;;4.78;;
59167;SDS011;44948;55.046;73.266;2023-04-03T13:13:57;19.45;;;4.57;;
59167;SDS011;44948;55.046;73.266;2023-04-03T13:17:15;17.08;;;3.92;;
59167;SDS011;44948;55.046;73.266;2023-04-03T13:23:24;21.90;;;4.25;;
59167;SDS011;44948;55.046;73.266;2023-04-03T13:26:36;19.65;;;6.07;;
59167;SDS011;44948;55.046;73.266;2023-04-03T13:29:50;19.93;;;5.03;;
59167;SDS011;44948;55.046;73.266;2023-04-03T13:32:55;21.42;;;6.07;;
59167;SDS011;44948;55.046;73.266;2023-04-03T13:36:02;27.23;;;6.22;;
59167;SDS011;44948;55.046;73.266;2023-04-03T13:42:25;16.73;;;4.63;;
59167;SDS011;44948;55.046;73.266;2023-04-03T13:45:32;24.52;;;4.43;;
59167;SDS011;44948;55.046;73.266;2023-04-03T13:48:37;22.25;;;4.80;;
59167;SDS011;44948;55.046;73.266;2023-04-03T13:51:46;25.35;;;5.15;;
59167;SDS011;44948;55.046;73.266;2023-04-03T13:54:55;21.52;;;4.82;;
59167;SDS011;44948;55.046;73.266;2023-04-03T14:01:18;17.92;;;5.07;;
59167;SDS011;44948;55.046;73.266;2023-04-03T14:04:29;26.55;;;6.00;;
59167;SDS011;44948;55.046;73.266;2023-04-03T14:07:33;32.77;;;8.10;;
59167;SDS011;44948;55.046;73.266;2023-04-03T14:10:37;29.10;;;6.72;;
59167;SDS011;44948;55.046;73.266;2023-04-03T14:13:50;29.35;;;6.60;;
59167;SDS011;44948;55.046;73.266;2023-04-03T14:16:54;29.23;;;5.72;;
59167;SDS011;44948;55.046;73.266;2023-04-03T14:20:00;33.72;;;6.55;;
59167;SDS011;44948;55.046;73.266;2023-04-03T14:23:03;26.73;;;5.78;;
59167;SDS011;44948;55.046;73.266;2023-04-03T14:26:19;27.85;;;5.95;;
59167;SDS011;44948;55.046;73.266;2023-04-03T14:29:31;20.30;;;5.96;;
59167;SDS011;44948;55.046;73.266;2023-04-03T14:32:44;23.30;;;5.47;;
59167;SDS011;44948;55.046;73.266;2023-04-03T14:35:48;21.48;;;5.97;;
59167;SDS011;44948;55.046;73.266;2023-04-03T14:38:53;29.50;;;6.78;;
59167;SDS011;44948;55.046;73.266;2023-04-03T14:42:03;29.67;;;6.53;;
59167;SDS011;44948;55.046;73.266;2023-04-03T14:45:11;32.50;;;7.45;;
59167;SDS011;44948;55.046;73.266;2023-04-03T14:48:18;31.67;;;7.05;;
59167;SDS011;44948;55.046;73.266;2023-04-03T14:51:25;23.15;;;7.50;;
59167;SDS011;44948;55.046;73.266;2023-04-03T14:54:28;36.95;;;7.82;;
59167;SDS011;44948;55.046;73.266;2023-04-03T14:57:31;26.98;;;8.07;;
59167;SDS011;44948;55.046;73.266;2023-04-03T15:00:38;31.95;;;8.73;;
59167;SDS011;44948;55.046;73.266;2023-04-03T15:03:41;31.85;;;9.15;;
59167;SDS011;44948;55.046;73.266;2023-04-03T15:06:43;27.88;;;8.88;;
59167;SDS011;44948;55.046;73.266;2023-04-03T15:09:54;33.17;;;10.34;;
59167;SDS011;44948;55.046;73.266;2023-04-03T15:12:59;42.15;;;9.73;;
59167;SDS011;44948;55.046;73.266;2023-04-03T15:16:02;36.65;;;9.93;;
59167;SDS011;44948;55.046;73.266;2023-04-03T15:19:05;28.50;;;9.93;;
59167;SDS011;44948;55.046;73.266;2023-04-03T15:22:15;37.97;;;16.10;;
59167;SDS011;44948;55.046;73.266;2023-04-03T15:25:19;58.80;;;22.15;;
59167;SDS011;44948;55.046;73.266;2023-04-03T15:28:33;34.80;;;15.23;;
59167;SDS011;44948;55.046;73.266;2023-04-03T15:31:38;48.47;;;23.02;;
59167;SDS011;44948;55.046;73.266;2023-04-03T15:34:50;45.15;;;14.80;;
59167;SDS011;44948;55.046;73.266;2023-04-03T15:37:55;34.03;;;12.98;;
59167;SDS011;44948;55.046;73.266;2023-04-03T15:41:05;34.17;;;12.73;;
59167;SDS011;44948;55.046;73.266;2023-04-03T15:44:08;44.45;;;13.25;;
59167;SDS011;44948;55.046;73.266;2023-04-03T15:47:11;35.83;;;13.68;;
59167;SDS011;44948;55.046;73.266;2023-04-03T15:50:13;33.25;;;13.13;;
59167;SDS011;44948;55.046;73.266;2023-04-03T15:53:21;45.70;;;13.20;;
59167;SDS011;44948;55.046;73.266;2023-04-03T15:56:24;35.80;;;11.77;;
59167;SDS011;44948;55.046;73.266;2023-04-03T15:59:26;38.88;;;13.00;;
59167;SDS011;44948;55.046;73.266;2023-04-03T16:02:36;34.63;;;11.70;;
59167;SDS011;44948;55.046;73.266;2023-04-03T16:05:44;32.42;;;11.20;;
59167;SDS011;44948;55.046;73.266;2023-04-03T16:08:51;38.08;;;11.48;;
59167;SDS011;44948;55.046;73.266;2023-04-03T16:11:58;30.70;;;11.55;;
59167;SDS011;44948;55.046;73.266;2023-04-03T16:15:07;33.35;;;12.20;;
59167;SDS011;44948;55.046;73.266;2023-04-03T16:18:09;36.33;;;11.55;;
59167;SDS011;44948;55.046;73.266;2023-04-03T16:21:12;32.63;;;11.05;;
59167;SDS011;44948;55.046;73.266;2023-04-03T16:24:17;36.15;;;11.68;;
59167;SDS011;44948;55.046;73.266;2023-04-03T16:27:19;31.42;;;11.18;;
59167;SDS011;44948;55.046;73.266;2023-04-03T16:30:33;31.76;;;10.36;;
59167;SDS011;44948;55.046;73.266;2023-04-03T16:33:47;26.70;;;9.93;;
59167;SDS011;44948;55.046;73.266;2023-04-03T16:36:50;22.73;;;8.90;;
59167;SDS011;44948;55.046;73.266;2023-04-03T16:39:56;32.75;;;9.43;;
59167;SDS011;44948;55.046;73.266;2023-04-03T16:43:00;24.50;;;9.40;;
59167;SDS011;44948;55.046;73.266;2023-04-03T16:46:07;20.55;;;9.18;;
59167;SDS011;44948;55.046;73.266;2023-04-03T16:49:14;25.63;;;9.32;;
59167;SDS011;44948;55.046;73.266;2023-04-03T16:52:27;26.45;;;10.82;;
59167;SDS011;44948;55.046;73.266;2023-04-03T16:55:29;37.35;;;14.10;;
59167;SDS011;44948;55.046;73.266;2023-04-03T16:58:32;53.85;;;25.77;;
59167;SDS011;44948;55.046;73.266;2023-04-03T17:01:34;63.67;;;29.40;;
59167;SDS011;44948;55.046;73.266;2023-04-03T17:08:35;32.53;;;14.88;;
59167;SDS011;44948;55.046;73.266;2023-04-03T17:11:47;40.03;;;16.42;;
59167;SDS011;44948;55.046;73.266;2023-04-03T17:14:55;38.17;;;17.85;;
59167;SDS011;44948;55.046;73.266;2023-04-03T17:17:57;29.52;;;13.73;;
59167;SDS011;44948;55.046;73.266;2023-04-03T17:21:01;27.86;;;12.32;;
59167;SDS011;44948;55.046;73.266;2023-04-03T19:10:29;111.72;;;35.30;;
59167;SDS011;44948;55.046;73.266;2023-04-03T19:13:31;97.25;;;29.17;;
59167;SDS011;44948;55.046;73.266;2023-04-03T19:16:34;53.50;;;25.15;;
59167;SDS011;44948;55.046;73.266;2023-04-03T19:19:36;30.70;;;15.23;;
59167;SDS011;44948;55.046;73.266;2023-04-03T19:22:43;32.60;;;13.73;;
59167;SDS011;44948;55.046;73.266;2023-04-03T19:25:46;27.55;;;11.43;;
59167;SDS011;44948;55.046;73.266;2023-04-03T19:28:48;25.85;;;9.75;;
59167;SDS011;44948;55.046;73.266;2023-04-03T19:32:20;22.85;;;8.48;;
59167;SDS011;44948;55.046;73.266;2023-04-03T19:35:25;18.98;;;8.98;;
59167;SDS011;44948;55.046;73.266;2023-04-03T19:38:28;24.55;;;8.85;;
59167;SDS011;44948;55.046;73.266;2023-04-03T19:41:30;19.42;;;7.03;;
59167;SDS011;44948;55.046;73.266;2023-04-03T19:44:35;17.25;;;8.18;;
59167;SDS011;44948;55.046;73.266;2023-04-03T19:47:38;17.50;;;7.38;;
59167;SDS011;44948;55.046;73.266;2023-04-03T19:50:46;13.40;;;6.40;;
59167;SDS011;44948;55.046;73.266;2023-04-03T19:53:58;18.38;;;6.18;;
59167;SDS011;44948;55.046;73.266;2023-04-03T20:00:22;21.17;;;6.95;;
59167;SDS011;44948;55.046;73.266;2023-04-03T20:03:25;14.65;;;5.80;;
59167;SDS011;44948;55.046;73.266;2023-04-03T20:06:27;15.48;;;5.30;;
59167;SDS011;44948;55.046;73.266;2023-04-03T20:09:34;11.73;;;5.38;;
59167;SDS011;44948;55.046;73.266;2023-04-03T20:12:36;11.50;;;5.17;;
59167;SDS011;44948;55.046;73.266;2023-04-03T20:15:40;13.80;;;5.32;;
59167;SDS011;44948;55.046;73.266;2023-04-03T20:18:43;14.00;;;4.82;;
59167;SDS011;44948;55.046;73.266;2023-04-03T20:22:20;17.25;;;4.65;;
59167;SDS011;44948;55.046;73.266;2023-04-03T20:25:23;10.73;;;4.57;;
59167;SDS011;44948;55.046;73.266;2023-04-03T20:28:26;8.55;;;4.30;;
59167;SDS011;44948;55.046;73.266;2023-04-03T20:31:29;9.38;;;4.72;;
59167;SDS011;44948;55.046;73.266;2023-04-03T20:34:33;8.57;;;4.35;;
59167;SDS011;44948;55.046;73.266;2023-04-03T20:37:35;8.65;;;3.90;;
59167;SDS011;44948;55.046;73.266;2023-04-03T20:40:39;14.07;;;4.80;;
59167;SDS011;44948;55.046;73.266;2023-04-03T20:43:42;11.55;;;4.18;;
59167;SDS011;44948;55.046;73.266;2023-04-03T20:47:21;12.10;;;4.03;;
59167;SDS011;44948;55.046;73.266;2023-04-03T20:50:25;9.43;;;4.75;;
59167;SDS011;44948;55.046;73.266;2023-04-03T20:53:38;12.30;;;4.70;;
59167;SDS011;44948;55.046;73.266;2023-04-03T20:57:20;10.36;;;4.34;;
59167;SDS011;44948;55.046;73.266;2023-04-03T21:00:23;11.38;;;4.68;;
59167;SDS011;44948;55.046;73.266;2023-04-03T21:03:26;10.77;;;4.35;;
59167;SDS011;44948;55.046;73.266;2023-04-03T21:20:36;16.65;;;3.92;;
59167;SDS011;44948;55.046;73.266;2023-04-03T21:23:39;18.63;;;3.88;;
59167;SDS011;44948;55.046;73.266;2023-04-03T21:27:21;10.23;;;3.45;;
59167;SDS011;44948;55.046;73.266;2023-04-03T21:30:24;9.77;;;4.13;;
59167;SDS011;44948;55.046;73.266;2023-04-03T21:33:26;7.50;;;3.73;;
59167;SDS011;44948;55.046;73.266;2023-04-03T21:37:20;12.26;;;3.87;;
59167;SDS011;44948;55.046;73.266;2023-04-03T21:40:23;12.68;;;3.80;;
59167;SDS011;44948;55.046;73.266;2023-04-03T21:43:29;11.50;;;4.50;;
59167;SDS011;44948;55.046;73.266;2023-04-03T21:46:32;10.65;;;4.25;;
59167;SDS011;44948;55.046;73.266;2023-04-03T21:49:37;9.05;;;3.33;;
59167;SDS011;44948;55.046;73.266;2023-04-03T21:52:51;8.50;;;3.65;;
59167;SDS011;44948;55.046;73.266;2023-04-03T21:55:55;8.30;;;3.65;;
59167;SDS011;44948;55.046;73.266;2023-04-03T21:59:08;8.00;;;3.45;;
59167;SDS011;44948;55.046;73.266;2023-04-03T22:05:22;8.25;;;3.40;;
59167;SDS011;44948;55.046;73.266;2023-04-03T22:08:24;9.52;;;4.20;;
59167;SDS011;44948;55.046;73.266;2023-04-03T22:11:31;9.95;;;4.00;;
59167;SDS011;44948;55.046;73.266;2023-04-03T22:14:34;12.20;;;3.97;;
59167;SDS011;44948;55.046;73.266;2023-04-03T22:17:37;9.80;;;3.42;;
59167;SDS011;44948;55.046;73.266;2023-04-03T22:20:41;11.43;;;3.55;;
59167;SDS011;44948;55.046;73.266;2023-04-03T22:23:44;13.40;;;3.95;;
59167;SDS011;44948;55.046;73.266;2023-04-03T22:27:22;17.08;;;4.20;;
59167;SDS011;44948;55.046;73.266;2023-04-03T22:30:35;8.73;;;3.40;;
59167;SDS011;44948;55.046;73.266;2023-04-03T22:33:40;9.27;;;3.75;;
59167;SDS011;44948;55.046;73.266;2023-04-03T22:37:20;13.73;;;4.13;;
59167;SDS011;44948;55.046;73.266;2023-04-03T22:40:23;15.07;;;4.00;;
59167;SDS011;44948;55.046;73.266;2023-04-03T22:43:26;8.90;;;3.83;;
59167;SDS011;44948;55.046;73.266;2023-04-03T22:46:28;9.68;;;4.03;;
59167;SDS011;44948;55.046;73.266;2023-04-03T22:49:41;10.65;;;3.70;;
59167;SDS011;44948;55.046;73.266;2023-04-03T22:52:48;8.80;;;3.75;;
59167;SDS011;44948;55.046;73.266;2023-04-03T22:55:58;19.83;;;4.80;;
59167;SDS011;44948;55.046;73.266;2023-04-03T22:59:12;10.77;;;3.95;;
59167;SDS011;44948;55.046;73.266;2023-04-03T23:05:22;19.23;;;4.30;;
59167;SDS011;44948;55.046;73.266;2023-04-03T23:08:25;9.90;;;3.90;;
59167;SDS011;44948;55.046;73.266;2023-04-03T23:11:31;9.85;;;3.30;;
59167;SDS011;44948;55.046;73.266;2023-04-03T23:14:33;9.30;;;3.17;;
59167;SDS011;44948;55.046;73.266;2023-04-03T23:17:42;10.63;;;3.60;;
59167;SDS011;44948;55.046;73.266;2023-04-03T23:20:50;13.25;;;3.50;;
59167;SDS011;44948;55.046;73.266;2023-04-03T23:23:58;7.88;;;3.13;;
59167;SDS011;44948;55.046;73.266;2023-04-03T23:30:22;8.40;;;2.55;;
59167;SDS011;44948;55.046;73.266;2023-04-03T23:33:25;10.32;;;2.90;;
59167;SDS011;44948;55.046;73.266;2023-04-03T23:36:32;8.38;;;3.20;;
59167;SDS011;44948;55.046;73.266;2023-04-03T23:39:34;10.05;;;3.13;;
59167;SDS011;44948;55.046;73.266;2023-04-03T23:42:36;12.55;;;4.90;;
59167;SDS011;44948;55.046;73.266;2023-04-03T23:45:39;13.15;;;5.60;;
59167;SDS011;44948;55.046;73.266;2023-04-03T23:48:42;8.82;;;5.03;;
59167;SDS011;44948;55.046;73.266;2023-04-03T23:52:20;10.38;;;4.60;;
59167;SDS011;44948;55.046;73.266;2023-04-03T23:55:32;6.93;;;3.47;;
59167;SDS011;44948;55.046;73.266;2023-04-03T23:58:35;11.77;;;3.47;;
